createdAt,value
2019-01-12T00:01:05.108Z,-0.90
2019-01-12T00:03:48.334Z,-0.90
2019-01-12T00:06:30.646Z,-1.00
2019-01-12T00:09:12.848Z,-1.00
2019-01-12T00:11:55.014Z,-0.90
2019-01-12T00:14:35.519Z,-0.80
2019-01-12T00:17:24.893Z,-0.80
2019-01-12T00:20:08.039Z,-1.00
2019-01-12T00:22:49.974Z,-1.00
2019-01-12T00:25:31.663Z,-0.90
2019-01-12T00:28:13.838Z,-0.90
2019-01-12T00:30:55.552Z,-0.80
2019-01-12T00:33:37.246Z,-0.90
2019-01-12T00:36:19.159Z,-0.90
2019-01-12T00:39:01.431Z,-0.90
2019-01-12T00:41:44.035Z,-0.90
2019-01-12T00:44:25.889Z,-0.70
2019-01-12T00:47:07.791Z,-0.60
2019-01-12T00:49:49.494Z,-0.60
2019-01-12T00:52:31.401Z,-0.70
2019-01-12T00:55:13.150Z,-0.80
2019-01-12T00:57:54.997Z,-0.70
2019-01-12T01:00:36.693Z,-0.70
2019-01-12T01:03:18.558Z,-0.70
2019-01-12T01:06:00.551Z,-0.70
2019-01-12T01:08:42.654Z,-0.70
2019-01-12T01:11:24.814Z,-0.70
2019-01-12T01:14:06.670Z,-0.80
2019-01-12T01:16:48.763Z,-0.80
2019-01-12T01:19:30.950Z,-0.80
2019-01-12T01:22:12.746Z,-0.80
2019-01-12T01:24:54.797Z,-0.90
2019-01-12T01:27:36.754Z,-0.80
2019-01-12T01:30:18.815Z,-0.90
2019-01-12T01:33:00.809Z,-0.90
2019-01-12T01:35:42.925Z,-0.90
2019-01-12T01:38:24.806Z,-0.90
2019-01-12T01:41:07.046Z,-0.80
2019-01-12T01:43:48.966Z,-0.90
2019-01-12T01:46:30.910Z,-1.00
2019-01-12T01:49:13.242Z,-1.00
2019-01-12T01:51:55.229Z,-1.00
2019-01-12T01:54:36.970Z,-1.10
2019-01-12T01:57:19.142Z,-1.20
2019-01-12T02:00:00.864Z,-1.30
2019-01-12T02:02:42.904Z,-1.40
2019-01-12T02:05:25.120Z,-1.60
2019-01-12T02:08:07.836Z,-1.70
2019-01-12T02:10:49.570Z,-1.70
2019-01-12T02:13:31.417Z,-1.70
2019-01-12T02:16:13.031Z,-1.80
2019-01-12T02:18:54.858Z,-1.80
2019-01-12T02:21:36.859Z,-1.90
2019-01-12T02:24:18.739Z,-2.00
2019-01-12T02:27:01.077Z,-2.10
2019-01-12T02:29:42.894Z,-2.10
2019-01-12T02:32:25.126Z,-2.00
2019-01-12T02:35:06.804Z,-2.10
2019-01-12T02:37:48.838Z,-2.10
2019-01-12T02:40:30.523Z,-2.20
2019-01-12T02:43:12.539Z,-2.20
2019-01-12T02:45:54.408Z,-2.10
2019-01-12T02:48:36.456Z,-2.10
2019-01-12T02:51:18.383Z,-2.10
2019-01-12T02:54:00.270Z,-2.00
2019-01-12T02:56:41.994Z,-2.00
2019-01-12T02:59:23.923Z,-2.00
2019-01-12T03:02:05.878Z,-2.00
2019-01-12T03:04:36.177Z,-2.00
2019-01-12T03:07:27.001Z,-2.10
2019-01-12T03:10:10.371Z,-2.10
2019-01-12T03:12:52.266Z,-2.20
2019-01-12T03:15:34.012Z,-2.20
2019-01-12T03:18:15.750Z,-2.20
2019-01-12T03:20:57.900Z,-2.30
2019-01-12T03:23:39.777Z,-2.30
2019-01-12T03:26:21.867Z,-2.30
2019-01-12T03:29:03.938Z,-2.20
2019-01-12T03:31:45.876Z,-2.20
2019-01-12T03:34:27.634Z,-2.30
2019-01-12T03:37:09.699Z,-2.30
2019-01-12T03:39:51.348Z,-2.40
2019-01-12T03:42:34.030Z,-2.40
2019-01-12T03:45:43.932Z,-2.50
2019-01-12T03:48:34.813Z,-2.50
2019-01-12T03:51:18.119Z,-2.50
2019-01-12T03:54:00.271Z,-2.60
2019-01-12T03:56:42.195Z,-2.60
2019-01-12T03:59:12.664Z,-2.70
2019-01-12T04:01:56.286Z,-2.70
2019-01-12T04:04:38.399Z,-2.70
2019-01-12T04:07:20.049Z,-2.70
2019-01-12T04:10:01.897Z,-2.70
2019-01-12T04:12:43.750Z,-2.70
2019-01-12T04:15:26.314Z,-2.70
2019-01-12T04:18:08.977Z,-2.70
2019-01-12T04:20:50.667Z,-2.70
2019-01-12T04:23:32.389Z,-2.70
2019-01-12T04:26:14.498Z,-2.70
2019-01-12T04:28:57.125Z,-2.60
2019-01-12T04:31:39.321Z,-2.70
2019-01-12T04:34:21.690Z,-2.70
2019-01-12T04:37:04.278Z,-2.70
2019-01-12T04:39:46.219Z,-2.70
2019-01-12T04:42:28.221Z,-2.60
2019-01-12T04:45:09.922Z,-2.70
2019-01-12T04:47:52.154Z,-2.70
2019-01-12T04:50:34.200Z,-2.70
2019-01-12T04:53:16.266Z,-2.70
2019-01-12T04:55:58.119Z,-2.70
2019-01-12T04:58:40.238Z,-2.70
2019-01-12T05:01:22.143Z,-2.70
2019-01-12T05:04:04.018Z,-2.80
2019-01-12T05:06:45.812Z,-2.80
2019-01-12T05:09:27.842Z,-2.90
2019-01-12T05:12:09.502Z,-2.90
2019-01-12T05:14:51.729Z,-3.00
2019-01-12T05:17:33.478Z,-2.50
2019-01-12T05:20:15.386Z,-2.10
2019-01-12T05:22:57.115Z,-1.40
2019-01-12T05:25:39.701Z,-1.00
2019-01-12T05:28:21.381Z,-1.30
2019-01-12T05:31:03.334Z,-1.40
2019-01-12T05:33:45.291Z,-1.50
2019-01-12T05:36:27.243Z,-1.40
2019-01-12T05:38:57.842Z,-1.30
2019-01-12T05:41:48.678Z,-1.10
2019-01-12T05:44:32.522Z,-1.00
2019-01-12T05:47:14.225Z,-1.30
2019-01-12T05:49:56.355Z,-1.60
2019-01-12T05:52:38.083Z,-1.40
2019-01-12T05:55:20.370Z,-1.60
2019-01-12T05:58:03.568Z,-1.90
2019-01-12T06:00:33.951Z,-2.30
2019-01-12T06:03:17.862Z,-2.60
2019-01-12T06:05:59.618Z,-2.80
2019-01-12T06:08:41.577Z,-3.00
2019-01-12T06:11:23.336Z,-3.10
2019-01-12T06:14:12.607Z,-3.20
2019-01-12T06:17:03.405Z,-3.30
2019-01-12T06:19:47.442Z,-3.40
2019-01-12T06:22:29.599Z,-3.50
2019-01-12T06:25:11.383Z,-3.60
2019-01-12T06:27:53.645Z,-3.60
2019-01-12T06:30:35.537Z,-3.60
2019-01-12T06:33:17.378Z,-3.60
2019-01-12T06:35:59.010Z,-3.60
2019-01-12T06:38:41.001Z,-3.60
2019-01-12T06:41:23.186Z,-3.50
2019-01-12T06:44:04.894Z,-3.40
2019-01-12T06:46:47.162Z,-3.40
2019-01-12T06:49:29.514Z,-3.50
2019-01-12T06:52:11.213Z,-3.50
2019-01-12T06:54:53.346Z,-3.50
2019-01-12T06:57:35.658Z,-3.50
2019-01-12T07:00:17.506Z,-3.50
2019-01-12T07:02:59.185Z,-3.40
2019-01-12T07:05:39.658Z,-3.40
2019-01-12T07:11:29.706Z,-3.30
2019-01-12T07:14:13.146Z,-3.20
2019-01-12T07:16:54.855Z,-3.20
2019-01-12T07:19:36.982Z,-3.20
2019-01-12T07:22:18.594Z,-3.10
2019-01-12T07:25:00.703Z,-3.00
2019-01-12T07:27:42.937Z,-2.90
2019-01-12T07:30:25.129Z,-2.90
2019-01-12T07:33:07.346Z,-2.90
2019-01-12T07:35:49.198Z,-2.90
2019-01-12T07:38:30.774Z,-2.90
2019-01-12T07:41:12.495Z,-2.90
2019-01-12T07:43:54.267Z,-2.80
2019-01-12T07:46:36.078Z,-2.60
2019-01-12T07:49:17.862Z,-2.60
2019-01-12T07:52:00.051Z,-2.50
2019-01-12T07:54:42.279Z,-2.50
2019-01-12T07:57:24.828Z,-2.50
2019-01-12T08:00:06.954Z,-2.40
2019-01-12T08:02:48.579Z,-2.40
2019-01-12T08:05:30.469Z,-2.30
2019-01-12T08:08:12.591Z,-2.20
2019-01-12T08:10:54.574Z,-2.10
2019-01-12T08:13:36.366Z,-2.00
2019-01-12T08:16:18.325Z,-1.90
2019-01-12T08:19:00.390Z,-1.70
2019-01-12T08:21:40.902Z,-1.60
2019-01-12T08:24:30.314Z,-1.50
2019-01-12T08:27:13.806Z,-1.50
2019-01-12T08:29:55.935Z,-1.30
2019-01-12T08:32:37.861Z,-1.10
2019-01-12T08:35:20.146Z,-0.90
2019-01-12T08:38:01.790Z,-0.60
2019-01-12T08:40:44.162Z,-0.20
2019-01-12T08:43:26.338Z,0.20
2019-01-12T08:46:08.077Z,0.70
2019-01-12T08:48:50.329Z,1.10
2019-01-12T08:51:32.175Z,1.30
2019-01-12T08:54:14.252Z,1.80
2019-01-12T08:56:56.002Z,2.10
2019-01-12T08:59:37.962Z,2.30
2019-01-12T09:02:19.666Z,2.40
2019-01-12T09:05:01.565Z,2.60
2019-01-12T09:07:43.206Z,2.70
2019-01-12T09:10:24.858Z,2.60
2019-01-12T09:13:06.673Z,2.70
2019-01-12T09:15:49.018Z,2.80
2019-01-12T09:18:31.322Z,2.90
2019-01-12T09:21:12.984Z,2.90
2019-01-12T09:23:54.862Z,3.00
2019-01-12T09:26:36.507Z,3.00
2019-01-12T09:29:18.166Z,3.10
2019-01-12T09:32:00.523Z,3.00
2019-01-12T09:34:43.117Z,3.00
2019-01-12T09:37:24.794Z,3.00
2019-01-12T09:40:06.690Z,3.00
2019-01-12T09:42:49.273Z,3.20
2019-01-12T09:45:30.902Z,3.20
2019-01-12T09:48:12.794Z,3.10
2019-01-12T09:50:54.946Z,3.10
2019-01-12T09:53:37.082Z,3.00
2019-01-12T09:56:18.827Z,3.10
2019-01-12T09:59:00.750Z,3.10
2019-01-12T10:01:42.806Z,3.10
2019-01-12T10:04:24.741Z,3.10
2019-01-12T10:07:07.126Z,3.10
2019-01-12T10:09:49.222Z,3.00
2019-01-12T10:12:31.094Z,2.90
2019-01-12T10:15:11.605Z,2.90
2019-01-12T10:18:01.022Z,2.90
2019-01-12T10:20:44.802Z,2.90
2019-01-12T10:23:26.401Z,3.10
2019-01-12T10:26:08.238Z,3.20
2019-01-12T10:28:49.985Z,3.30
2019-01-12T10:31:31.710Z,3.40
2019-01-12T10:34:13.699Z,3.60
2019-01-12T10:36:55.775Z,3.80
2019-01-12T10:39:37.730Z,4.00
2019-01-12T10:42:19.472Z,4.10
2019-01-12T10:45:01.567Z,4.30
2019-01-12T10:47:43.391Z,4.50
2019-01-12T10:50:25.245Z,4.50
2019-01-12T10:53:07.307Z,4.70
2019-01-12T10:55:49.038Z,4.70
2019-01-12T10:58:30.800Z,4.80
2019-01-12T11:01:12.571Z,4.80
2019-01-12T11:03:54.639Z,4.90
2019-01-12T11:06:36.513Z,5.20
2019-01-12T11:09:18.190Z,5.40
2019-01-12T11:12:00.518Z,5.60
2019-01-12T11:14:45.463Z,5.90
2019-01-12T11:17:27.466Z,6.10
2019-01-12T11:20:09.726Z,6.30
2019-01-12T11:22:52.381Z,6.40
2019-01-12T11:25:34.722Z,6.40
2019-01-12T11:28:16.814Z,6.50
2019-01-12T11:30:58.714Z,6.50
2019-01-12T11:33:40.378Z,6.50
2019-01-12T11:36:22.470Z,6.50
2019-01-12T11:39:04.372Z,6.60
2019-01-12T11:41:46.865Z,6.60
2019-01-12T11:44:29.074Z,6.70
2019-01-12T11:47:10.884Z,6.70
2019-01-12T11:49:52.585Z,6.80
2019-01-12T11:52:35.019Z,6.80
2019-01-12T11:55:16.739Z,6.90
2019-01-12T11:57:58.522Z,6.90
2019-01-12T12:00:40.522Z,6.80
2019-01-12T12:03:22.590Z,6.70
2019-01-12T12:06:04.796Z,6.70
2019-01-12T12:08:46.973Z,6.60
2019-01-12T12:11:29.210Z,6.50
2019-01-12T12:14:11.087Z,6.50
2019-01-12T12:16:53.086Z,6.50
2019-01-12T12:19:33.474Z,6.50
2019-01-12T12:22:22.810Z,6.60
2019-01-12T12:25:06.526Z,6.60
2019-01-12T12:27:48.285Z,6.70
2019-01-12T12:30:29.858Z,6.80
2019-01-12T12:33:12.050Z,6.90
2019-01-12T12:35:53.782Z,7.00
2019-01-12T12:38:35.652Z,7.00
2019-01-12T12:41:17.763Z,6.90
2019-01-12T12:44:00.329Z,6.80
2019-01-12T12:46:42.242Z,6.70
2019-01-12T12:49:24.201Z,6.50
2019-01-12T12:52:06.587Z,6.40
2019-01-12T12:54:48.468Z,6.30
2019-01-12T12:57:33.012Z,6.10
2019-01-12T13:00:14.580Z,6.10
2019-01-12T13:02:56.154Z,6.10
2019-01-12T13:05:38.282Z,6.10
2019-01-12T13:08:19.954Z,6.10
2019-01-12T13:11:01.930Z,6.10
2019-01-12T13:13:44.007Z,6.20
2019-01-12T13:16:30.485Z,6.10
2019-01-12T13:19:13.254Z,6.10
2019-01-12T13:21:55.246Z,6.00
2019-01-12T13:24:37.325Z,5.90
2019-01-12T13:27:18.986Z,5.80
2019-01-12T13:30:01.118Z,5.60
2019-01-12T13:32:42.990Z,5.50
2019-01-12T13:35:24.827Z,5.40
2019-01-12T13:38:06.965Z,5.30
2019-01-12T13:40:48.797Z,5.20
2019-01-12T13:43:30.502Z,5.20
2019-01-12T13:46:12.230Z,5.30
2019-01-12T13:48:53.850Z,5.30
2019-01-12T13:51:35.958Z,5.40
2019-01-12T13:54:17.746Z,5.40
2019-01-12T13:56:59.674Z,5.40
2019-01-12T13:59:41.854Z,5.40
2019-01-12T14:02:23.670Z,5.40
2019-01-12T14:05:05.697Z,5.50
2019-01-12T14:07:47.429Z,5.40
2019-01-12T14:10:29.587Z,5.30
2019-01-12T14:13:11.314Z,5.30
2019-01-12T14:15:53.030Z,5.20
2019-01-12T14:18:34.653Z,5.10
2019-01-12T14:21:16.358Z,5.00
2019-01-12T14:23:58.046Z,4.90
2019-01-12T14:26:39.893Z,4.80
2019-01-12T14:29:21.551Z,4.70
2019-01-12T14:32:03.685Z,4.70
2019-01-12T14:34:45.662Z,4.80
2019-01-12T14:37:27.483Z,4.80
2019-01-12T14:40:09.479Z,4.80
2019-01-12T14:42:51.662Z,4.70
2019-01-12T14:45:33.642Z,4.50
2019-01-12T14:48:15.462Z,4.60
2019-01-12T14:50:57.954Z,4.90
2019-01-12T14:53:39.785Z,5.00
2019-01-12T14:56:21.698Z,5.20
2019-01-12T14:59:04.223Z,5.20
2019-01-12T15:01:46.127Z,5.10
2019-01-12T15:04:28.417Z,4.90
2019-01-12T15:07:10.155Z,4.80
2019-01-12T15:09:51.979Z,4.70
2019-01-12T15:12:33.980Z,4.60
2019-01-12T15:15:15.956Z,4.60
2019-01-12T15:17:57.981Z,4.40
2019-01-12T15:20:40.002Z,4.40
2019-01-12T15:23:21.805Z,4.30
2019-01-12T15:26:04.238Z,4.20
2019-01-12T15:28:46.224Z,4.10
2019-01-12T15:31:28.118Z,4.10
2019-01-12T15:34:10.409Z,4.10
2019-01-12T15:36:52.066Z,3.90
2019-01-12T15:39:34.048Z,4.00
2019-01-12T15:42:16.046Z,3.90
2019-01-12T15:44:58.135Z,3.70
2019-01-12T15:47:40.331Z,3.70
2019-01-12T15:50:22.409Z,3.50
2019-01-12T15:53:04.066Z,3.30
2019-01-12T15:55:46.122Z,3.10
2019-01-12T15:58:28.006Z,2.90
2019-01-12T16:01:09.750Z,2.90
2019-01-12T16:03:52.310Z,2.80
2019-01-12T16:06:34.256Z,2.70
2019-01-12T16:09:15.943Z,2.60
2019-01-12T16:11:57.602Z,2.40
2019-01-12T16:14:39.636Z,2.30
2019-01-12T16:17:21.462Z,2.50
2019-01-12T16:20:03.537Z,2.90
2019-01-12T16:22:45.317Z,2.80
2019-01-12T16:25:27.206Z,2.60
2019-01-12T16:28:09.103Z,2.40
2019-01-12T16:30:51.129Z,2.40
2019-01-12T16:33:33.310Z,2.20
2019-01-12T16:36:15.170Z,2.10
2019-01-12T16:38:56.914Z,2.10
2019-01-12T16:41:39.292Z,1.90
2019-01-12T16:44:21.678Z,1.80
2019-01-12T16:46:52.090Z,1.70
2019-01-12T16:49:41.495Z,1.60
2019-01-12T16:52:25.357Z,1.60
2019-01-12T16:55:07.290Z,1.40
2019-01-12T16:57:49.191Z,1.30
2019-01-12T17:00:31.314Z,1.70
2019-01-12T17:03:13.225Z,1.60
2019-01-12T17:05:55.001Z,1.70
2019-01-12T17:08:37.033Z,1.60
2019-01-12T17:11:19.573Z,1.50
2019-01-12T17:14:02.223Z,1.70
2019-01-12T17:16:44.409Z,2.10
2019-01-12T17:19:26.542Z,2.10
2019-01-12T17:22:08.434Z,2.10
2019-01-12T17:24:50.874Z,2.10
2019-01-12T17:27:32.590Z,2.20
2019-01-12T17:30:14.507Z,1.90
2019-01-12T17:32:56.851Z,1.60
2019-01-12T17:35:38.982Z,1.40
2019-01-12T17:38:21.497Z,1.20
2019-01-12T17:41:03.282Z,1.20
2019-01-12T17:43:45.260Z,1.10
2019-01-12T17:46:27.830Z,0.90
2019-01-12T17:49:10.166Z,0.90
2019-01-12T17:51:52.294Z,0.70
2019-01-12T17:54:34.521Z,0.60
2019-01-12T17:57:16.437Z,0.60
2019-01-12T17:59:58.904Z,0.50
2019-01-12T18:02:40.786Z,0.50
2019-01-12T18:05:22.959Z,0.50
2019-01-12T18:08:04.736Z,0.50
2019-01-12T18:10:47.262Z,0.50
2019-01-12T18:13:28.891Z,1.20
2019-01-12T18:16:11.094Z,1.70
2019-01-12T18:18:53.026Z,1.70
2019-01-12T18:21:35.594Z,1.40
2019-01-12T18:24:17.184Z,1.20
2019-01-12T18:26:59.017Z,0.90
2019-01-12T18:29:41.722Z,0.70
2019-01-12T18:32:23.759Z,0.50
2019-01-12T18:35:06.074Z,0.40
2019-01-12T18:37:47.910Z,0.30
2019-01-12T18:40:30.238Z,0.20
2019-01-12T18:43:12.237Z,0.20
2019-01-12T18:45:54.314Z,0.10
2019-01-12T18:48:36.448Z,0.10
2019-01-12T18:51:18.442Z,0.10
2019-01-12T18:54:00.301Z,0.10
2019-01-12T18:56:42.186Z,0.10
2019-01-12T18:59:24.061Z,0.10
2019-01-12T19:02:05.988Z,0.00
2019-01-12T19:04:36.374Z,-0.10
2019-01-12T19:07:31.292Z,-0.10
2019-01-12T19:10:15.177Z,-0.20
2019-01-12T19:12:57.110Z,-0.30
2019-01-12T19:15:38.786Z,-0.30
2019-01-12T19:18:20.600Z,-0.30
2019-01-12T19:21:02.884Z,-0.40
2019-01-12T19:23:44.900Z,-0.40
2019-01-12T19:26:26.909Z,-0.40
2019-01-12T19:29:09.262Z,-0.40
2019-01-12T19:31:50.938Z,-0.40
2019-01-12T19:34:33.066Z,-0.40
2019-01-12T19:37:15.234Z,-0.40
2019-01-12T19:39:57.702Z,-0.40
2019-01-12T19:42:39.362Z,-0.40
2019-01-12T19:45:21.274Z,-0.40
2019-01-12T19:48:03.103Z,-0.40
2019-01-12T19:50:45.383Z,-0.40
2019-01-12T19:53:27.236Z,-0.40
2019-01-12T19:56:09.175Z,-0.40
2019-01-12T19:58:51.826Z,-0.40
2019-01-12T20:01:33.878Z,-0.40
2019-01-12T20:04:15.573Z,-0.40
2019-01-12T20:06:57.354Z,-0.10
2019-01-12T20:09:39.850Z,-0.10
2019-01-12T20:12:22.186Z,-0.20
2019-01-12T20:15:03.838Z,-0.20
2019-01-12T20:17:46.117Z,-0.30
2019-01-12T20:20:28.158Z,-0.30
2019-01-12T20:23:10.111Z,-0.30
2019-01-12T20:25:51.830Z,-0.40
2019-01-12T20:28:34.287Z,-0.40
2019-01-12T20:31:16.266Z,-0.40
2019-01-12T20:33:58.106Z,-0.40
2019-01-12T20:36:59.856Z,-0.50
2019-01-12T20:40:08.403Z,-0.50
2019-01-12T20:42:51.898Z,-0.40
2019-01-12T20:45:34.162Z,-0.40
2019-01-12T20:48:15.902Z,-0.40
2019-01-12T20:50:57.736Z,-0.40
2019-01-12T20:53:40.290Z,-0.40
2019-01-12T20:56:22.310Z,-0.40
2019-01-12T20:59:05.021Z,-0.40
2019-01-12T21:01:46.926Z,-0.40
2019-01-12T21:04:29.293Z,-0.40
2019-01-12T21:07:11.934Z,-0.40
2019-01-12T21:09:53.894Z,-0.40
2019-01-12T21:12:35.987Z,-0.40
2019-01-12T21:15:17.722Z,-0.30
2019-01-12T21:17:59.650Z,-0.40
2019-01-12T21:20:41.734Z,-0.40
2019-01-12T21:23:23.843Z,-0.40
2019-01-12T21:26:05.486Z,0.20
2019-01-12T21:28:47.202Z,0.50
2019-01-12T21:31:28.991Z,0.30
2019-01-12T21:34:10.798Z,0.20
2019-01-12T21:36:52.858Z,0.10
2019-01-12T21:39:35.116Z,0.00
2019-01-12T21:42:17.633Z,-0.10
2019-01-12T21:44:59.302Z,-0.20
2019-01-12T21:47:41.473Z,-0.20
2019-01-12T21:50:23.164Z,-0.20
2019-01-12T21:53:05.434Z,-0.30
2019-01-12T21:55:47.576Z,-0.40
2019-01-12T21:58:29.475Z,-0.40
2019-01-12T22:01:11.890Z,-0.50
2019-01-12T22:03:53.998Z,-0.50
2019-01-12T22:06:35.746Z,-0.50
2019-01-12T22:09:09.868Z,-0.50
2019-01-12T22:11:52.123Z,-0.60
2019-01-12T22:14:34.117Z,-0.60
2019-01-12T22:17:16.420Z,-0.60
2019-01-12T22:19:58.540Z,-0.60
2019-01-12T22:22:40.177Z,-0.60
2019-01-12T22:25:22.166Z,-0.50
2019-01-12T22:28:04.167Z,-0.50
2019-01-12T22:30:46.677Z,-0.50
2019-01-12T22:33:28.823Z,-0.60
2019-01-12T22:36:11.125Z,-0.50
2019-01-12T22:38:53.074Z,-0.50
2019-01-12T22:41:35.214Z,-0.50
2019-01-12T22:44:17.786Z,-0.50
2019-01-12T22:46:59.549Z,-0.50
2019-01-12T22:49:41.573Z,-0.50
2019-01-12T22:52:23.237Z,-0.50
2019-01-12T22:55:05.863Z,-0.50
2019-01-12T22:57:47.730Z,-0.50
2019-01-12T23:00:29.616Z,-0.40
2019-01-12T23:03:11.934Z,-0.50
2019-01-12T23:05:54.139Z,-0.40
2019-01-12T23:08:35.971Z,-0.40
2019-01-12T23:11:18.728Z,-0.40
2019-01-12T23:14:00.935Z,-0.30
2019-01-12T23:16:43.618Z,-0.40
2019-01-12T23:19:25.429Z,-0.40
2019-01-12T23:22:07.054Z,-0.50
2019-01-12T23:24:49.008Z,-0.50
2019-01-12T23:27:31.077Z,-0.50
2019-01-12T23:30:13.326Z,-0.60
2019-01-12T23:32:55.355Z,-0.60
2019-01-12T23:35:37.124Z,-0.70
2019-01-12T23:38:18.886Z,-0.60
2019-01-12T23:41:00.574Z,-0.60
2019-01-12T23:43:42.651Z,-0.50
2019-01-12T23:46:24.802Z,-0.50
2019-01-12T23:49:07.094Z,-0.50
2019-01-12T23:51:49.292Z,-0.50
2019-01-12T23:54:30.910Z,-0.50
2019-01-12T23:57:12.754Z,-0.50
2019-01-12T23:59:55.279Z,-0.50
